Charlevoix, MI

1:13 PM EST on December 16, 2017 (GMT -0500)
Charlevoix Municipal

Weather History for KCVX - January, 2012

Change the Weather History Date:

Monday, January 9, 2012

  Actual Average Record
Temperature  
Mean Temperature 34 °F -  
Max Temperature 39 °F 32 °F 46 °F (2002)
Min Temperature 30 °F 16 °F 5 °F (2004)
Degree Days  
Heating Degree Days 30    
Moisture  
Dew Point 31 °F    
Average Humidity 84    
Maximum Humidity 93    
Minimum Humidity 73    
Precipitation  
Precipitation 0.00 in - - ()
Sea Level Pressure  
Sea Level Pressure 29.90 in    
Wind  
Wind Speed 10 mph (SSW)    
Max Wind Speed 22 mph    
Max Gust Speed 32 mph    
Visibility 10 miles    
Events Rain , Snow    
Averages and records for this station are not official NWS values.
T = Trace of Precipitation, MM = Missing Value Source: NWS Daily Summary

Daily Weather History Graph

Daily Weather History Graph

Search for Another Location

Airport or City:

Trip Planner

Search our weather history database for the weather conditions in past years. The results will help you decide how hot, cold, wet, or windy it might be!

Date:

Astronomy

Jan. 09, 2012 Rise Set
Actual Time 8:19 AM EST 5:16 PM EST
Civil Twilight 7:46 AM EST 5:50 PM EST
Nautical Twilight 7:09 AM EST 6:27 PM EST
Astronomical Twilight 6:33 AM EST 7:02 PM EST
Moon 6:05 PM EST (1/9) 8:16 AM EST (1/9)
Length of Visible Light 10h 04m
Length of Day
8h 57m
Full, 100% of the Moon is Illuminated
Jan 9
Full
Jan 16
Last Quarter
Jan 23
New
Jan 30
First Quarter
Feb 7
Full

Hourly Weather History & Observations

Time (EST) Temp. Windchill Dew Point Humidity Pressure Visibility Wind Dir Wind Speed Gust Speed Precip Events Conditions
12:15 AM 31.1 °F 26.4 °F 26.1 °F 82% 30.15 in 10.0 mi South 4.6 mph - N/A   Overcast
12:34 AM 31.8 °F 26.2 °F 27.7 °F 85% 30.14 in 10.0 mi South 5.8 mph - N/A   Mostly Cloudy
12:54 AM 31.6 °F 27.0 °F 28.4 °F 88% 30.13 in 10.0 mi South 4.6 mph - N/A   Scattered Clouds
1:14 AM 30.2 °F 24.3 °F 27.9 °F 91% 30.12 in 10.0 mi South 5.8 mph - N/A   Clear
1:34 AM 31.1 °F 25.4 °F 29.1 °F 92% 30.11 in 10.0 mi South 5.8 mph - N/A   Clear
1:55 AM 31.6 °F 26.0 °F 29.8 °F 93% 30.10 in 10.0 mi South 5.8 mph - N/A   Clear
2:14 AM 31.5 °F 26.8 °F 29.7 °F 93% 30.09 in 10.0 mi SSW 4.6 mph - N/A   Clear
2:34 AM 31.8 °F 27.3 °F 29.8 °F 92% 30.09 in 10.0 mi SSW 4.6 mph - N/A   Clear
2:55 AM 32.0 °F 26.4 °F 30.2 °F 93% 30.08 in 10.0 mi SSW 5.8 mph - N/A   Clear
3:14 AM 32.4 °F 26.9 °F 30.6 °F 93% 30.07 in 10.0 mi SSW 5.8 mph - N/A   Clear
3:34 AM 32.0 °F 25.6 °F 30.2 °F 93% 30.06 in 10.0 mi SSW 6.9 mph - N/A   Clear
3:55 AM 32.9 °F 25.3 °F 30.2 °F 90% 30.05 in 10.0 mi SSW 9.2 mph - N/A   Clear
4:14 AM 33.1 °F 24.9 °F 30.0 °F 89% 30.04 in 10.0 mi SSW 10.4 mph - N/A   Clear
4:34 AM 33.1 °F 25.5 °F 30.2 °F 89% 30.03 in 10.0 mi SSW 9.2 mph 18.4 mph N/A   Clear
4:55 AM 32.9 °F 24.1 °F 30.4 °F 90% 30.02 in 10.0 mi SSW 11.5 mph 16.1 mph N/A   Clear
5:14 AM 33.1 °F 24.9 °F 30.2 °F 89% 30.02 in 10.0 mi SSW 10.4 mph - N/A   Clear
5:35 AM 33.3 °F 24.6 °F 30.4 °F 89% 30.01 in 10.0 mi SSW 11.5 mph 18.4 mph N/A   Clear
5:54 AM 33.3 °F 25.1 °F 30.2 °F 89% 30.00 in 10.0 mi SSW 10.4 mph 16.1 mph N/A   Clear
6:35 AM 32.9 °F 24.7 °F 30.2 °F 90% 29.98 in 10.0 mi South 10.4 mph 18.4 mph N/A   Clear
6:54 AM 33.1 °F 23.9 °F 30.2 °F 89% 29.97 in 10.0 mi South 12.7 mph 17.3 mph N/A   Clear
7:14 AM 33.3 °F 24.6 °F 30.2 °F 89% 29.96 in 10.0 mi SSW 11.5 mph 19.6 mph N/A   Clear
7:35 AM 33.3 °F 24.1 °F 30.2 °F 89% 29.94 in 10.0 mi SSW 12.7 mph - N/A   Clear
7:54 AM 33.8 °F 23.5 °F 30.4 °F 87% 29.94 in 10.0 mi SSW 16.1 mph 24.2 mph N/A   Mostly Cloudy
8:14 AM 33.8 °F 25.3 °F 30.7 °F 89% 29.92 in 10.0 mi SSW 11.5 mph 21.9 mph N/A   Mostly Cloudy
8:35 AM 34.3 °F 24.2 °F 30.9 °F 87% 29.91 in 10.0 mi SSW 16.1 mph 24.2 mph N/A   Overcast
8:54 AM 34.7 °F 25.9 °F 31.1 °F 87% 29.90 in 10.0 mi SSW 12.7 mph 19.6 mph N/A   Overcast
9:14 AM 35.2 °F 28.1 °F 30.9 °F 84% 29.89 in 10.0 mi SSW 9.2 mph 20.7 mph N/A   Overcast
9:35 AM 35.8 °F 26.1 °F 30.7 °F 82% 29.88 in 10.0 mi SSW 16.1 mph 26.5 mph N/A   Overcast
9:54 AM 35.8 °F 27.3 °F 30.9 °F 82% 29.87 in 10.0 mi SSW 12.7 mph 23.0 mph N/A   Overcast
10:14 AM 34.9 °F 24.6 °F 31.8 °F 89% 29.86 in 4.0 mi SSW 17.3 mph 25.3 mph N/A Snow Light Snow
10:35 AM 34.7 °F 24.0 °F 32.0 °F 90% 29.84 in 4.0 mi SSW 18.4 mph 25.3 mph N/A Snow Light Snow
11:15 AM 36.1 °F 25.9 °F 32.5 °F 87% 29.80 in 10.0 mi South 18.4 mph 27.6 mph N/A   Mostly Cloudy
11:34 AM 36.1 °F 26.5 °F 32.2 °F 86% 29.80 in 10.0 mi SSW 16.1 mph 27.6 mph N/A   Mostly Cloudy
11:54 AM 36.7 °F 28.0 °F 32.4 °F 84% 29.78 in 10.0 mi SSW 13.8 mph 26.5 mph N/A   Mostly Cloudy
12:15 PM 37.6 °F 30.0 °F 32.0 °F 80% 29.76 in 10.0 mi SW 11.5 mph 25.3 mph N/A   Overcast
12:34 PM 39.2 °F 29.0 °F 31.3 °F 73% 29.77 in 10.0 mi WSW 21.9 mph 32.2 mph N/A   Overcast
12:54 PM 37.4 °F 26.9 °F 31.6 °F 80% 29.76 in 7.0 mi WSW 20.7 mph 31.1 mph N/A Rain Light Rain
1:15 PM 35.6 °F 25.2 °F 32.2 °F 87% 29.75 in 5.0 mi SW 18.4 mph 32.2 mph N/A Rain Light Rain
1:34 PM 36.7 °F 26.9 °F 32.0 °F 83% 29.74 in 10.0 mi SW 17.3 mph 27.6 mph N/A   Overcast
1:54 PM 37.6 °F 27.7 °F 32.0 °F 80% 29.72 in 10.0 mi SW 18.4 mph 28.8 mph N/A   Overcast
2:15 PM 38.3 °F 28.7 °F 32.4 °F 79% 29.72 in 10.0 mi SW 18.4 mph 25.3 mph N/A   Overcast
2:34 PM 38.1 °F 29.1 °F 32.0 °F 79% 29.73 in 10.0 mi SW 16.1 mph 21.9 mph N/A   Overcast
3:34 PM 38.5 °F 28.3 °F 31.1 °F 75% 29.72 in 10.0 mi SW 20.7 mph 29.9 mph N/A   Overcast
3:54 PM 38.7 °F 28.8 °F 31.3 °F 75% 29.72 in 10.0 mi SW 19.6 mph 27.6 mph N/A   Mostly Cloudy
4:14 PM 38.8 °F 30.8 °F 31.1 °F 74% 29.72 in 10.0 mi SW 13.8 mph 26.5 mph N/A   Clear
4:34 PM 38.7 °F 28.6 °F 30.9 °F 74% 29.73 in 10.0 mi SW 20.7 mph 32.2 mph N/A   Clear
4:55 PM 38.5 °F 29.2 °F 30.9 °F 74% 29.72 in 10.0 mi SW 17.3 mph - N/A   Clear
5:15 PM 38.3 °F 30.1 °F 30.6 °F 74% 29.73 in 10.0 mi SW 13.8 mph 21.9 mph N/A   Clear
5:34 PM 37.9 °F 30.0 °F 30.2 °F 74% 29.74 in 10.0 mi SW 12.7 mph 21.9 mph N/A   Clear
5:54 PM 37.8 °F 29.4 °F 30.2 °F 74% 29.74 in 10.0 mi SW 13.8 mph - N/A   Clear
6:14 PM 37.8 °F 29.8 °F 30.2 °F 74% 29.74 in 10.0 mi SW 12.7 mph 19.6 mph N/A   Clear
6:35 PM 37.6 °F 29.6 °F 30.4 °F 75% 29.75 in 10.0 mi SW 12.7 mph 17.3 mph N/A   Clear
6:54 PM 37.8 °F 30.7 °F 30.9 °F 76% 29.76 in 10.0 mi SW 10.4 mph 16.1 mph N/A   Scattered Clouds
7:14 PM 38.7 °F 30.5 °F 31.5 °F 75% 29.77 in 10.0 mi SW 13.8 mph 17.3 mph N/A   Mostly Cloudy
7:35 PM 39.6 °F 31.0 °F 32.0 °F 74% 29.76 in 10.0 mi SW 16.1 mph 21.9 mph N/A   Overcast
7:54 PM 40.1 °F 32.7 °F 32.5 °F 74% 29.77 in 10.0 mi WSW 12.7 mph 25.3 mph N/A   Overcast
8:14 PM 39.7 °F 30.9 °F 32.2 °F 74% 29.77 in 10.0 mi WSW 17.3 mph 23.0 mph N/A   Mostly Cloudy
8:35 PM 40.3 °F 31.6 °F 32.9 °F 75% 29.78 in 10.0 mi WSW 17.3 mph 24.2 mph N/A   Mostly Cloudy
8:54 PM 41.0 °F 31.9 °F 32.4 °F 71% 29.79 in 10.0 mi West 19.6 mph 26.5 mph N/A   Overcast
9:14 PM 40.1 °F 33.6 °F 32.4 °F 74% 29.81 in 10.0 mi WNW 10.4 mph 19.6 mph N/A   Overcast
9:35 PM 39.2 °F 32.5 °F 31.6 °F 74% 29.81 in 10.0 mi WNW 10.4 mph - N/A   Overcast
9:54 PM 38.8 °F 31.6 °F 32.0 °F 76% 29.82 in 10.0 mi WNW 11.5 mph - N/A   Overcast
10:14 PM 38.7 °F 32.4 °F 32.0 °F 77% 29.82 in 10.0 mi WNW 9.2 mph - N/A   Overcast
10:34 PM 38.5 °F 32.7 °F 32.0 °F 78% 29.82 in 10.0 mi WNW 8.1 mph - N/A   Overcast
10:54 PM 38.3 °F 32.5 °F 32.0 °F 78% 29.83 in 10.0 mi West 8.1 mph - N/A   Overcast
11:14 PM 38.3 °F 33.2 °F 32.2 °F 79% 29.82 in 10.0 mi West 6.9 mph - N/A   Overcast
11:35 PM 38.7 °F 32.4 °F 31.6 °F 76% 29.83 in 10.0 mi WNW 9.2 mph - N/A   Overcast
11:54 PM 38.7 °F 31.4 °F 32.0 °F 77% 29.83 in 10.0 mi NW 11.5 mph - N/A   Overcast